Time;durP1;ratioP1;P1;durP2;ratioP2;P2;SDS_P1;SDS_P2;PMS_P1;PMS_P2;Temp;Humidity;BMP_temperature;BMP_pressure;BME280_temperature;BME280_humidity;BME280_pressure;Samples;Min_cycle;Max_cycle;Signal;HPM_P1;HPM_P2
2023/04/17 00:02:11;;;;;;;3.30;3.00;;;8.20;99.90;;;;;;5046070;28;20030;-77
2023/04/17 00:04:37;;;;;;;3.35;2.83;;;8.30;99.90;;;;;;5046583;28;20057;-77
2023/04/17 00:07:03;;;;;;;3.25;2.88;;;8.30;99.90;;;;;;5046198;28;20025;-76
2023/04/17 00:09:29;;;;;;;3.03;2.70;;;8.30;99.90;;;;;;5046313;28;20053;-75
2023/04/17 00:11:55;;;;;;;2.85;2.60;;;8.30;99.90;;;;;;5045688;28;20030;-75
2023/04/17 00:14:21;;;;;;;3.88;2.80;;;8.30;99.90;;;;;;5045088;28;20037;-75
2023/04/17 00:16:46;;;;;;;3.17;2.88;;;8.20;99.90;;;;;;5045610;28;20025;-75
2023/04/17 00:19:12;;;;;;;2.90;2.70;;;8.20;99.90;;;;;;5044636;28;20108;-74
2023/04/17 00:21:37;;;;;;;3.45;2.63;;;8.20;99.90;;;;;;5044394;28;20030;-75
2023/04/17 00:24:03;;;;;;;2.90;2.60;;;8.20;99.90;;;;;;5044588;28;20037;-75
2023/04/17 00:26:31;;;;;;;3.33;2.75;;;8.20;99.90;;;;;;5044652;28;20064;-75
2023/04/17 00:28:56;;;;;;;3.63;2.80;;;8.20;99.90;;;;;;5045101;28;20380;-75
2023/04/17 00:31:22;;;;;;;3.22;2.92;;;8.20;99.90;;;;;;5044847;28;20045;-75
2023/04/17 00:33:47;;;;;;;2.95;2.70;;;8.10;99.90;;;;;;5044608;28;20036;-75
2023/04/17 00:36:14;;;;;;;3.67;2.95;;;8.10;99.90;;;;;;5044418;28;20064;-75
2023/04/17 00:38:40;;;;;;;3.67;3.38;;;8.10;99.90;;;;;;5044566;28;20047;-75
2023/04/17 00:41:05;;;;;;;3.35;2.97;;;8.10;99.90;;;;;;5044794;28;20021;-76
2023/04/17 00:43:31;;;;;;;3.65;3.10;;;8.10;99.90;;;;;;5044854;28;20056;-75
2023/04/17 00:45:57;;;;;;;3.08;2.78;;;8.10;99.90;;;;;;5045589;28;20060;-76
2023/04/17 00:48:23;;;;;;;4.15;3.25;;;8.10;99.90;;;;;;5043544;28;20029;-76
2023/04/17 00:50:49;;;;;;;3.10;2.80;;;8.10;99.90;;;;;;5044752;28;20085;-76
2023/04/17 00:53:16;;;;;;;3.30;3.00;;;8.00;99.90;;;;;;5044388;28;20014;-75
2023/04/17 00:55:43;;;;;;;3.30;3.00;;;8.00;99.90;;;;;;5045237;28;20478;-75
2023/04/17 00:58:10;;;;;;;3.58;2.72;;;8.00;99.90;;;;;;5044480;28;20051;-75
2023/04/17 01:00:36;;;;;;;2.83;2.55;;;8.00;99.90;;;;;;5042195;28;20056;-76
2023/04/17 01:03:02;;;;;;;3.53;2.83;;;7.90;99.90;;;;;;5043219;28;20089;-75
2023/04/17 01:05:28;;;;;;;4.90;3.38;;;7.90;99.90;;;;;;5044137;28;20033;-76
2023/04/17 01:07:55;;;;;;;2.88;2.67;;;7.90;99.90;;;;;;5043254;28;20087;-75
2023/04/17 01:10:21;;;;;;;3.47;3.17;;;7.80;99.90;;;;;;5043681;28;20612;-75
2023/04/17 01:12:59;;;;;;;2.95;2.65;;;7.90;99.90;;;;;;5043174;28;20116;-75
2023/04/17 01:15:25;;;;;;;3.38;2.92;;;8.00;99.90;;;;;;5043754;28;20037;-75
2023/04/17 01:17:51;;;;;;;3.53;3.22;;;8.00;99.90;;;;;;5044374;28;20411;-75
2023/04/17 01:20:16;;;;;;;3.30;2.75;;;8.00;99.90;;;;;;5043419;28;20021;-76
2023/04/17 01:22:42;;;;;;;3.78;3.17;;;8.00;99.90;;;;;;5042147;28;20397;-75
2023/04/17 01:25:08;;;;;;;4.10;3.38;;;8.00;99.90;;;;;;5043783;28;20033;-75
2023/04/17 01:27:34;;;;;;;2.90;2.70;;;7.90;99.90;;;;;;5043075;28;20085;-74
2023/04/17 01:30:00;;;;;;;3.55;2.92;;;7.90;99.90;;;;;;5042807;28;20072;-75
2023/04/17 01:32:25;;;;;;;4.40;3.42;;;7.90;99.90;;;;;;5042425;28;20041;-75
2023/04/17 01:34:51;;;;;;;3.72;3.22;;;7.90;99.90;;;;;;5042807;28;20029;-76
2023/04/17 01:37:17;;;;;;;3.72;2.83;;;8.00;99.90;;;;;;5043992;28;20081;-75
2023/04/17 01:39:42;;;;;;;3.13;2.80;;;7.90;99.90;;;;;;5043086;28;20021;-75
2023/04/17 01:42:08;;;;;;;3.80;3.35;;;7.90;99.90;;;;;;5042523;28;20033;-77
2023/04/17 01:44:36;;;;;;;4.60;3.40;;;7.90;99.90;;;;;;5041916;28;20056;-74
2023/04/17 01:47:01;;;;;;;7.72;3.60;;;7.90;99.90;;;;;;5042100;28;20532;-75
2023/04/17 01:49:27;;;;;;;3.78;3.20;;;7.90;99.90;;;;;;5042985;28;20060;-75
2023/04/17 01:51:53;;;;;;;3.75;3.03;;;8.00;99.90;;;;;;5042889;28;20033;-75
2023/04/17 01:54:19;;;;;;;3.53;2.97;;;7.90;99.90;;;;;;5042476;28;20041;-75
2023/04/17 01:56:45;;;;;;;3.97;3.25;;;8.00;99.90;;;;;;5042799;28;20040;-75
2023/04/17 01:59:11;;;;;;;3.40;3.08;;;8.00;99.90;;;;;;5043040;28;20432;-74
2023/04/17 02:01:36;;;;;;;4.38;3.13;;;7.90;99.90;;;;;;5042480;28;20041;-75
2023/04/17 02:04:02;;;;;;;3.28;2.60;;;8.00;99.90;;;;;;5042679;28;20092;-75
2023/04/17 02:06:28;;;;;;;4.30;2.80;;;8.00;99.90;;;;;;5042906;28;20538;-75
2023/04/17 02:08:53;;;;;;;3.00;2.70;;;8.00;99.90;;;;;;5041899;28;20037;-74
2023/04/17 02:11:19;;;;;;;3.17;2.67;;;8.00;99.90;;;;;;5041322;28;20056;-75
2023/04/17 02:13:45;;;;;;;2.97;2.67;;;8.00;99.90;;;;;;5042169;28;20037;-75
2023/04/17 02:16:11;;;;;;;3.95;3.03;;;7.90;99.90;;;;;;5042265;28;20056;-75
2023/04/17 02:18:37;;;;;;;4.00;3.28;;;7.80;99.90;;;;;;5043045;28;20068;-75
2023/04/17 02:21:03;;;;;;;2.97;2.70;;;7.80;99.90;;;;;;5042676;28;20017;-74
2023/04/17 02:23:29;;;;;;;7.72;2.78;;;7.80;99.90;;;;;;5042109;28;20377;-74
2023/04/17 02:25:55;;;;;;;3.47;3.03;;;7.80;99.90;;;;;;5042527;28;20029;-75
2023/04/17 02:28:21;;;;;;;4.15;3.03;;;7.80;99.90;;;;;;5024833;28;20151;-75
2023/04/17 02:30:46;;;;;;;4.65;3.45;;;7.70;99.90;;;;;;5041223;28;20022;-76
2023/04/17 02:33:12;;;;;;;3.60;3.03;;;7.70;99.90;;;;;;5041747;28;20051;-74
2023/04/17 02:35:38;;;;;;;3.38;2.92;;;7.80;99.90;;;;;;5041481;28;20030;-76
2023/04/17 02:38:04;;;;;;;4.30;3.50;;;7.80;99.90;;;;;;5041043;28;20041;-76
2023/04/17 02:40:29;;;;;;;5.03;3.85;;;7.80;99.90;;;;;;5042361;28;20469;-74
2023/04/17 02:42:55;;;;;;;7.05;3.90;;;7.80;99.90;;;;;;5042127;28;20432;-75
2023/04/17 02:45:21;;;;;;;4.78;3.45;;;7.80;99.90;;;;;;5024660;28;20377;-75
2023/04/17 02:47:47;;;;;;;6.22;4.40;;;7.80;99.90;;;;;;5041872;28;20080;-76
2023/04/17 02:50:13;;;;;;;5.70;4.63;;;7.80;99.90;;;;;;5042105;28;20037;-75
2023/04/17 02:52:39;;;;;;;6.28;3.90;;;7.90;99.90;;;;;;5042201;28;20100;-74
2023/04/17 02:55:05;;;;;;;5.25;3.90;;;7.90;99.90;;;;;;5041369;28;20075;-75
2023/04/17 02:57:31;;;;;;;5.47;3.88;;;8.00;99.90;;;;;;5042290;28;20036;-75
2023/04/17 02:59:57;;;;;;;5.90;3.92;;;8.00;99.90;;;;;;5042198;28;20030;-74
2023/04/17 03:02:23;;;;;;;6.32;4.70;;;7.90;99.90;;;;;;5040205;28;20136;-75
2023/04/17 03:04:49;;;;;;;5.20;4.43;;;7.80;99.90;;;;;;5042262;28;20124;-75
2023/04/17 03:07:17;;;;;;;5.18;3.70;;;7.80;99.90;;;;;;5041351;28;20033;-75
2023/04/17 03:09:46;;;;;;;6.00;4.60;;;7.80;99.90;;;;;;5041837;28;20136;-75
2023/04/17 03:12:13;;;;;;;6.03;4.47;;;7.80;99.90;;;;;;5041728;28;20449;-75
2023/04/17 03:14:40;;;;;;;5.57;4.68;;;7.80;99.90;;;;;;5041917;28;20119;-75
2023/04/17 03:17:05;;;;;;;5.88;4.22;;;7.80;99.90;;;;;;5041442;28;20029;-75
2023/04/17 03:19:31;;;;;;;6.20;4.65;;;7.70;99.90;;;;;;5041397;28;20037;-76
2023/04/17 03:21:57;;;;;;;6.90;4.80;;;7.70;99.90;;;;;;5041632;28;20060;-75
2023/04/17 03:24:22;;;;;;;7.00;5.57;;;7.70;99.90;;;;;;5044407;28;20034;-74
2023/04/17 03:26:48;;;;;;;6.95;5.32;;;7.70;99.90;;;;;;5046068;28;20025;-76
2023/04/17 03:29:13;;;;;;;7.60;5.28;;;7.70;99.90;;;;;;5045923;28;20028;-76
2023/04/17 03:31:39;;;;;;;7.32;5.00;;;7.70;99.90;;;;;;5044859;28;20467;-77
2023/04/17 03:34:05;;;;;;;6.30;5.30;;;7.70;99.90;;;;;;5044902;28;20116;-75
2023/04/17 03:36:31;;;;;;;8.50;5.30;;;7.70;99.90;;;;;;5045837;28;20115;-75
2023/04/17 03:38:56;;;;;;;9.85;6.57;;;7.70;99.90;;;;;;5045827;28;20068;-75
2023/04/17 03:41:22;;;;;;;9.70;6.70;;;7.70;99.90;;;;;;5044722;28;20484;-76
2023/04/17 03:43:48;;;;;;;8.30;6.18;;;7.70;99.90;;;;;;5045294;28;20053;-75
2023/04/17 03:46:14;;;;;;;9.82;7.10;;;7.70;99.90;;;;;;5045007;28;20047;-76
2023/04/17 03:48:40;;;;;;;9.65;6.20;;;7.70;99.90;;;;;;5045469;28;20034;-75
2023/04/17 03:51:05;;;;;;;10.30;6.47;;;7.70;99.90;;;;;;5046467;28;20029;-75
2023/04/17 03:53:31;;;;;;;10.25;6.22;;;7.70;99.90;;;;;;5045337;28;20037;-74
2023/04/17 03:55:56;;;;;;;8.35;6.53;;;7.80;99.90;;;;;;5045127;28;20030;-74
2023/04/17 03:58:22;;;;;;;10.65;7.05;;;7.80;99.90;;;;;;5045196;28;20033;-75
2023/04/17 04:00:49;;;;;;;10.50;7.13;;;7.80;99.90;;;;;;5044845;28;20041;-75
2023/04/17 04:03:15;;;;;;;9.98;7.45;;;7.70;99.90;;;;;;5045169;28;20037;-76
2023/04/17 04:05:40;;;;;;;9.88;7.28;;;7.80;99.90;;;;;;5044773;28;20036;-74
2023/04/17 04:08:06;;;;;;;12.57;7.25;;;7.80;99.90;;;;;;5045404;28;20106;-74
2023/04/17 04:10:31;;;;;;;10.35;7.55;;;7.70;99.90;;;;;;5045372;28;20484;-73
2023/04/17 04:12:57;;;;;;;11.70;7.43;;;7.80;99.90;;;;;;5027186;28;20384;-74
2023/04/17 04:15:22;;;;;;;9.63;6.97;;;7.80;99.90;;;;;;5027359;28;20034;-75
2023/04/17 04:17:48;;;;;;;10.52;7.07;;;7.80;99.90;;;;;;5044607;28;20041;-74
2023/04/17 04:20:14;;;;;;;11.15;7.30;;;7.70;99.90;;;;;;5045446;28;20048;-75
2023/04/17 04:22:40;;;;;;;9.35;6.78;;;7.80;99.90;;;;;;5045109;28;20033;-75
2023/04/17 04:25:06;;;;;;;10.45;7.07;;;7.80;99.90;;;;;;5044654;28;20061;-75
2023/04/17 04:27:32;;;;;;;9.82;7.45;;;7.80;99.90;;;;;;5044696;28;20025;-74
2023/04/17 04:30:01;;;;;;;9.55;6.82;;;7.80;99.90;;;;;;5044362;28;20029;-75
2023/04/17 04:32:27;;;;;;;7.53;6.10;;;7.80;99.90;;;;;;5044136;28;20374;-74
2023/04/17 04:34:57;;;;;;;9.10;6.90;;;8.00;99.90;;;;;;5043658;28;20076;-75
2023/04/17 04:37:28;;;;;;;8.40;5.82;;;8.00;99.90;;;;;;5044088;28;20040;-75
2023/04/17 04:40:00;;;;;;;9.82;6.57;;;8.00;99.90;;;;;;5044938;28;20385;-75
2023/04/17 04:42:27;;;;;;;9.07;6.90;;;8.10;99.90;;;;;;5044975;28;20359;-76
2023/04/17 04:44:52;;;;;;;9.43;6.70;;;8.10;99.90;;;;;;5044429;28;20492;-75
2023/04/17 04:47:19;;;;;;;8.88;6.63;;;8.10;99.90;;;;;;5045414;28;20029;-75
2023/04/17 04:49:44;;;;;;;9.50;6.55;;;8.10;99.90;;;;;;5044637;28;20032;-75
2023/04/17 04:52:10;;;;;;;9.75;6.60;;;8.10;99.90;;;;;;5044295;28;20037;-74
2023/04/17 04:54:36;;;;;;;9.95;7.10;;;8.10;99.90;;;;;;5044591;28;20038;-75
2023/04/17 04:57:01;;;;;;;10.57;7.00;;;8.00;99.90;;;;;;5044527;28;20041;-75
2023/04/17 04:59:27;;;;;;;10.23;6.72;;;7.90;99.90;;;;;;5044919;28;20030;-73
2023/04/17 05:01:52;;;;;;;11.52;7.50;;;7.90;99.90;;;;;;5044343;28;20038;-74
2023/04/17 05:04:18;;;;;;;11.27;7.47;;;7.80;99.90;;;;;;5044541;28;20033;-73
2023/04/17 05:06:44;;;;;;;11.27;7.20;;;7.90;99.90;;;;;;5044892;28;20042;-75
2023/04/17 05:09:10;;;;;;;10.52;7.35;;;7.90;99.90;;;;;;5044669;28;20167;-74
2023/04/17 05:11:35;;;;;;;14.18;8.38;;;7.80;99.90;;;;;;5044483;28;20083;-75
2023/04/17 05:14:01;;;;;;;10.80;7.50;;;7.80;99.90;;;;;;5044352;28;20037;-75
2023/04/17 05:16:27;;;;;;;12.35;7.95;;;7.80;99.90;;;;;;5044489;28;20470;-75
2023/04/17 05:18:54;;;;;;;11.98;8.18;;;7.70;99.90;;;;;;5044477;28;20093;-75
2023/04/17 05:21:19;;;;;;;13.88;7.85;;;7.70;99.90;;;;;;5043968;28;20159;-75
2023/04/17 05:23:45;;;;;;;14.43;8.30;;;7.70;99.90;;;;;;5044704;28;20088;-75
2023/04/17 05:26:11;;;;;;;14.77;9.05;;;7.70;99.90;;;;;;5043877;28;20029;-74
2023/04/17 05:28:37;;;;;;;16.70;9.27;;;7.60;99.90;;;;;;5044599;28;20022;-74
2023/04/17 05:31:03;;;;;;;17.55;10.15;;;7.70;99.90;;;;;;5043282;28;20380;-76
2023/04/17 05:33:28;;;;;;;19.67;10.95;;;7.70;99.90;;;;;;5043121;28;20033;-74
2023/04/17 05:35:54;;;;;;;16.13;9.85;;;7.70;99.90;;;;;;5043067;28;20076;-75
2023/04/17 05:38:19;;;;;;;14.95;9.70;;;7.70;99.90;;;;;;5042919;28;20385;-75
2023/04/17 05:40:45;;;;;;;17.73;9.88;;;7.60;99.90;;;;;;5042920;28;20040;-74
2023/04/17 05:43:11;;;;;;;19.83;10.18;;;7.60;99.90;;;;;;5041891;28;20144;-74
2023/04/17 05:45:37;;;;;;;17.23;9.77;;;7.60;99.90;;;;;;5042194;28;20108;-74
2023/04/17 05:48:02;;;;;;;17.98;9.60;;;7.70;99.90;;;;;;5042790;28;20026;-74
2023/04/17 05:50:28;;;;;;;16.45;9.30;;;7.70;99.90;;;;;;5042986;28;20030;-74
2023/04/17 05:52:55;;;;;;;18.40;10.13;;;7.70;99.90;;;;;;5042325;28;20037;-74
2023/04/17 05:55:21;;;;;;;16.88;9.45;;;7.70;99.90;;;;;;5044030;28;20534;-75
2023/04/17 05:57:46;;;;;;;17.17;9.40;;;7.70;99.90;;;;;;5042773;28;20057;-74
2023/04/17 06:00:12;;;;;;;16.38;10.02;;;7.70;99.90;;;;;;5043040;28;20029;-74
2023/04/17 06:02:43;;;;;;;17.50;9.38;;;7.70;99.90;;;;;;5042863;28;20033;-76
2023/04/17 06:05:09;;;;;;;15.63;8.70;;;7.70;99.90;;;;;;5043500;28;20037;-75
2023/04/17 06:07:39;;;;;;;17.95;9.48;;;7.80;99.90;;;;;;5043843;28;20446;-75
2023/04/17 06:10:05;;;;;;;18.45;9.98;;;7.80;99.90;;;;;;5042975;28;20373;-74
2023/04/17 06:12:31;;;;;;;20.08;10.07;;;7.80;99.90;;;;;;5042320;28;20025;-73
2023/04/17 06:14:57;;;;;;;17.33;8.23;;;7.80;99.90;;;;;;5043590;28;20029;-76
2023/04/17 06:17:22;;;;;;;18.23;8.90;;;7.80;99.90;;;;;;5043879;28;20041;-75
2023/04/17 06:19:48;;;;;;;18.05;9.63;;;7.80;99.90;;;;;;5042508;28;20026;-75
2023/04/17 06:22:14;;;;;;;18.85;10.10;;;7.80;99.90;;;;;;5042084;28;20029;-75
2023/04/17 06:24:39;;;;;;;15.85;9.02;;;7.90;99.90;;;;;;5042651;28;20116;-75
2023/04/17 06:27:05;;;;;;;16.80;9.45;;;7.90;99.90;;;;;;5042442;28;20026;-76
2023/04/17 06:29:31;;;;;;;18.10;10.13;;;8.00;99.90;;;;;;5042177;28;20123;-77
2023/04/17 06:31:56;;;;;;;15.82;8.73;;;8.00;99.90;;;;;;5041807;28;20038;-75
2023/04/17 06:34:22;;;;;;;14.32;8.98;;;8.10;99.90;;;;;;5042657;28;20029;-75
2023/04/17 06:36:47;;;;;;;15.65;9.00;;;8.10;99.90;;;;;;5042931;28;20041;-75
2023/04/17 06:39:13;;;;;;;13.60;8.48;;;8.10;99.90;;;;;;5042985;28;20034;-74
2023/04/17 06:41:39;;;;;;;12.27;7.53;;;8.10;99.90;;;;;;5042847;28;20091;-75
2023/04/17 06:44:04;;;;;;;12.95;8.43;;;8.10;99.90;;;;;;5041962;28;20049;-75
2023/04/17 06:46:30;;;;;;;11.73;8.25;;;8.00;99.90;;;;;;5043134;28;20056;-75
2023/04/17 06:48:58;;;;;;;12.63;8.63;;;8.00;99.90;;;;;;5042663;28;20068;-75
2023/04/17 06:51:26;;;;;;;15.32;9.23;;;8.10;99.90;;;;;;5043010;28;20022;-74
2023/04/17 06:53:51;;;;;;;13.73;8.38;;;8.00;99.90;;;;;;5041867;28;20042;-74
2023/04/17 06:56:18;;;;;;;12.15;7.47;;;8.00;99.90;;;;;;5042059;28;20030;-75
2023/04/17 06:58:43;;;;;;;12.40;8.00;;;8.10;99.90;;;;;;5042862;28;20053;-76
2023/04/17 07:01:10;;;;;;;11.23;7.63;;;8.10;99.90;;;;;;5041751;28;20520;-75
2023/04/17 07:03:37;;;;;;;12.68;7.00;;;8.20;99.90;;;;;;5043229;28;20045;-76
2023/04/17 07:06:03;;;;;;;10.55;7.05;;;8.30;99.90;;;;;;5042552;28;20036;-74
2023/04/17 07:08:28;;;;;;;11.73;7.57;;;8.40;99.90;;;;;;5042302;28;20120;-74
2023/04/17 07:10:54;;;;;;;12.13;7.93;;;8.40;99.90;;;;;;5042618;28;20037;-75
2023/04/17 07:13:20;;;;;;;11.73;7.22;;;8.50;99.90;;;;;;5042243;28;20107;-76
2023/04/17 07:15:54;;;;;;;11.32;7.40;;;8.40;99.90;;;;;;5042340;28;20061;-76
2023/04/17 07:18:24;;;;;;;12.32;7.82;;;8.50;99.90;;;;;;5042863;28;20400;-76
2023/04/17 07:20:50;;;;;;;11.68;7.60;;;8.40;99.90;;;;;;5043267;28;20037;-76
2023/04/17 07:23:15;;;;;;;11.15;7.22;;;8.40;99.90;;;;;;5040796;28;20450;-75
2023/04/17 07:25:41;;;;;;;11.82;7.47;;;8.40;99.90;;;;;;5042300;28;20467;-75
2023/04/17 07:28:07;;;;;;;10.85;6.90;;;8.40;99.90;;;;;;5042141;28;20056;-75
2023/04/17 07:30:32;;;;;;;14.43;7.75;;;8.40;99.90;;;;;;5042569;28;20072;-77
2023/04/17 07:32:59;;;;;;;11.77;7.13;;;8.40;99.90;;;;;;5041975;28;20467;-76
2023/04/17 07:35:24;;;;;;;13.18;7.47;;;8.40;99.90;;;;;;5042628;28;20037;-75
2023/04/17 07:37:50;;;;;;;11.77;7.10;;;8.40;99.90;;;;;;5042354;28;20033;-75
2023/04/17 07:40:16;;;;;;;12.88;7.25;;;8.40;99.90;;;;;;5042675;28;20021;-75
2023/04/17 07:42:42;;;;;;;12.25;7.40;;;8.40;99.90;;;;;;5043066;28;20025;-76
2023/04/17 07:45:09;;;;;;;11.43;7.00;;;8.30;99.90;;;;;;5041899;28;20028;-76
2023/04/17 07:47:35;;;;;;;12.68;7.00;;;8.40;99.90;;;;;;5042581;28;20042;-75
2023/04/17 07:50:00;;;;;;;10.02;6.88;;;8.30;99.90;;;;;;5042344;28;20591;-76
2023/04/17 07:52:26;;;;;;;8.50;6.10;;;8.40;99.90;;;;;;5041457;28;20045;-76
2023/04/17 07:54:52;;;;;;;10.48;6.43;;;8.40;99.90;;;;;;5042297;28;20034;-76
2023/04/17 07:57:17;;;;;;;11.52;6.47;;;8.40;99.90;;;;;;5042381;28;20488;-75
2023/04/17 07:59:44;;;;;;;10.00;6.40;;;8.70;99.90;;;;;;5042231;28;20040;-75
2023/04/17 08:02:10;;;;;;;9.02;6.22;;;8.90;99.90;;;;;;5041918;28;20049;-75
2023/04/17 08:04:36;;;;;;;10.05;5.97;;;9.10;99.90;;;;;;5041827;28;20037;-75
2023/04/17 08:07:02;;;;;;;9.93;6.55;;;9.10;99.90;;;;;;5042145;28;20077;-77
2023/04/17 08:09:27;;;;;;;9.40;5.78;;;9.20;99.90;;;;;;5043653;28;20128;-76
2023/04/17 08:11:53;;;;;;;10.65;6.60;;;9.20;99.90;;;;;;5046087;28;20037;-77
2023/04/17 08:14:19;;;;;;;10.38;6.40;;;9.30;99.90;;;;;;5045772;28;20056;-77
2023/04/17 08:16:48;;;;;;;10.82;6.55;;;9.30;99.90;;;;;;5045290;28;20491;-75
2023/04/17 08:19:14;;;;;;;10.07;6.60;;;9.50;99.90;;;;;;5045296;28;20093;-76
2023/04/17 08:21:40;;;;;;;8.55;5.53;;;9.50;99.90;;;;;;5045377;28;20064;-77
2023/04/17 08:24:06;;;;;;;9.38;5.95;;;9.50;99.90;;;;;;5046114;28;20456;-76
2023/04/17 08:26:32;;;;;;;10.82;6.50;;;9.60;99.90;;;;;;5046050;28;20022;-76
2023/04/17 08:29:00;;;;;;;8.68;5.70;;;9.70;99.90;;;;;;5045573;28;20040;-75
2023/04/17 08:31:27;;;;;;;7.88;5.35;;;9.90;99.90;;;;;;5044290;28;20089;-77
2023/04/17 08:33:53;;;;;;;8.25;5.93;;;10.30;99.90;;;;;;5045157;28;20064;-75
2023/04/17 08:36:19;;;;;;;7.50;5.50;;;10.70;99.90;;;;;;5045502;28;20040;-76
2023/04/17 08:38:46;;;;;;;8.00;5.45;;;10.70;99.90;;;;;;5045380;28;20029;-76
2023/04/17 08:41:17;;;;;;;8.38;5.82;;;10.60;99.90;;;;;;5046266;28;20033;-77
2023/04/17 08:43:48;;;;;;;6.50;5.47;;;10.30;99.90;;;;;;5045574;28;20061;-75
2023/04/17 08:46:14;;;;;;;6.50;5.03;;;10.10;99.90;;;;;;5045999;28;20025;-75
2023/04/17 08:48:40;;;;;;;7.03;4.95;;;10.20;99.90;;;;;;5045661;28;20039;-75
2023/04/17 08:51:06;;;;;;;9.80;5.82;;;10.20;99.90;;;;;;5044952;28;20085;-76
2023/04/17 08:53:32;;;;;;;5.28;4.40;;;10.20;99.90;;;;;;5044426;28;20032;-75
2023/04/17 08:56:03;;;;;;;7.45;6.00;;;10.20;99.90;;;;;;5046874;28;20485;-77
2023/04/17 08:58:33;;;;;;;8.30;6.03;;;10.20;99.90;;;;;;5047092;28;20102;-75
2023/04/17 09:01:10;;;;;;;6.70;4.50;;;10.10;99.90;;;;;;5046236;28;20033;-75
2023/04/17 09:03:44;;;;;;;8.00;5.75;;;10.20;99.90;;;;;;5045910;28;20025;-77
2023/04/17 09:06:10;;;;;;;7.10;5.68;;;10.20;99.90;;;;;;5047827;28;20087;-75
2023/04/17 09:08:36;;;;;;;9.38;5.95;;;10.20;99.90;;;;;;5047944;28;20034;-76
2023/04/17 09:11:02;;;;;;;7.40;5.60;;;10.20;99.90;;;;;;5046816;28;20381;-76
2023/04/17 09:13:29;;;;;;;7.00;5.25;;;10.30;99.90;;;;;;5045259;28;20026;-76
2023/04/17 09:16:08;;;;;;;10.35;5.53;;;10.60;99.90;;;;;;5044459;28;20543;-75
2023/04/17 09:18:35;;;;;;;8.90;5.03;;;11.10;99.90;;;;;;5044430;28;20029;-77
2023/04/17 09:21:02;;;;;;;8.55;5.65;;;11.60;99.90;;;;;;5043932;28;20038;-77
2023/04/17 09:23:29;;;;;;;6.38;5.07;;;11.80;99.90;;;;;;5044643;28;20030;-76
2023/04/17 09:26:09;;;;;;;6.90;5.13;;;11.70;99.90;;;;;;5044865;28;20024;-77
2023/04/17 09:28:38;;;;;;;5.65;4.82;;;11.80;99.90;;;;;;5044184;28;20083;-77
2023/04/17 09:31:25;;;;;;;5.78;4.75;;;12.10;99.90;;;;;;5043968;28;20030;-77
2023/04/17 09:33:59;;;;;;;6.65;5.07;;;12.10;99.90;;;;;;5044340;28;20049;-76
2023/04/17 09:36:31;;;;;;;6.93;4.95;;;12.00;99.90;;;;;;5044137;28;20053;-76
2023/04/17 09:38:59;;;;;;;6.03;4.90;;;12.20;99.90;;;;;;5026965;28;20385;-77
2023/04/17 09:41:26;;;;;;;;;;;12.10;99.90;;;;;;5045047;28;20030;-76
2023/04/17 09:43:59;;;;;;;5.60;4.43;;;11.80;99.90;;;;;;5044749;28;19924;-75
2023/04/17 09:46:39;;;;;;;4.82;4.03;;;11.80;99.90;;;;;;5043471;28;20451;-75
2023/04/17 09:49:48;;;;;;;4.75;4.03;;;11.90;99.90;;;;;;5044441;28;20424;-74
2023/04/17 09:52:15;;;;;;;4.78;4.13;;;12.10;99.90;;;;;;5044754;28;20029;-76
2023/04/17 09:54:42;;;;;;;6.35;4.53;;;12.20;99.90;;;;;;5043900;28;20033;-75
2023/04/17 09:57:09;;;;;;;4.93;4.10;;;12.00;99.90;;;;;;5045014;28;20030;-75
2023/04/17 09:59:39;;;;;;;5.82;4.47;;;11.90;99.90;;;;;;5044047;28;20072;-76
2023/04/17 10:02:08;;;;;;;6.20;5.00;;;11.70;99.90;;;;;;5043099;28;20473;-75
2023/04/17 10:04:34;;;;;;;4.82;4.15;;;11.70;99.90;;;;;;5044867;28;20438;-76
2023/04/17 10:07:01;;;;;;;5.70;4.85;;;11.70;99.90;;;;;;5043774;28;20031;-76
2023/04/17 10:09:27;;;;;;;5.70;4.63;;;11.70;99.90;;;;;;5043033;28;20025;-77
2023/04/17 10:11:53;;;;;;;5.53;4.85;;;11.80;99.90;;;;;;5042982;28;20377;-76
2023/04/17 10:14:23;;;;;;;5.45;4.75;;;11.70;99.90;;;;;;5044472;28;20033;-77
2023/04/17 10:16:49;;;;;;;5.78;5.20;;;11.60;99.90;;;;;;5043652;28;20036;-77
2023/04/17 10:19:31;;;;;;;5.22;4.72;;;11.60;99.90;;;;;;5044019;28;20057;-77
2023/04/17 10:22:16;;;;;;;6.22;4.80;;;11.60;99.90;;;;;;5044192;28;20071;-76
2023/04/17 10:24:42;;;;;;;6.82;4.93;;;11.90;99.90;;;;;;5043167;28;20056;-76
2023/04/17 10:27:24;;;;;;;6.32;5.03;;;12.60;99.90;;;;;;5042761;28;20026;-76
2023/04/17 10:29:58;;;;;;;5.50;5.00;;;12.90;99.90;;;;;;5043526;28;20049;-75
2023/04/17 10:32:27;;;;;;;6.78;5.78;;;12.90;99.90;;;;;;5041293;28;20061;-75
2023/04/17 10:35:13;;;;;;;2.65;2.33;;;13.00;99.90;;;;;;5042878;28;20039;-75
2023/04/17 10:37:50;;;;;;;3.75;3.20;;;12.20;99.90;;;;;;5042537;28;20437;-75
2023/04/17 10:40:34;;;;;;;3.38;3.00;;;11.40;99.90;;;;;;5042655;28;20029;-75
2023/04/17 10:43:22;;;;;;;2.28;2.10;;;10.90;99.90;;;;;;5043240;28;20091;-75
2023/04/17 10:45:50;;;;;;;3.33;2.63;;;10.50;99.90;;;;;;5042525;28;20029;-76
2023/04/17 10:48:51;;;;;;;3.47;2.35;;;10.50;99.90;;;;;;5042326;28;20462;-76
2023/04/17 10:51:22;;;;;;;3.70;2.45;;;10.30;99.90;;;;;;5039046;28;20052;-75
2023/04/17 10:53:50;;;;;;;2.88;2.55;;;10.20;99.90;;;;;;5041606;28;20059;-77
2023/04/17 10:56:33;;;;;;;2.92;2.42;;;10.20;99.90;;;;;;5025905;28;20346;-76
2023/04/17 10:59:22;;;;;;;3.15;2.85;;;10.20;99.90;;;;;;5043709;28;20369;-76
2023/04/17 11:01:47;;;;;;;4.63;3.17;;;10.60;99.90;;;;;;5043641;28;20076;-76
2023/04/17 11:04:21;;;;;;;3.50;3.20;;;10.80;99.90;;;;;;5043852;28;20030;-75
2023/04/17 11:06:47;;;;;;;3.28;2.97;;;10.70;99.90;;;;;;5043680;28;20081;-75
2023/04/17 11:09:14;;;;;;;4.53;3.55;;;10.50;99.90;;;;;;5043501;28;20033;-75
2023/04/17 11:11:41;;;;;;;3.13;2.83;;;10.40;99.90;;;;;;5042448;28;20029;-77
2023/04/17 11:14:18;;;;;;;2.97;2.70;;;10.30;99.90;;;;;;5044625;28;20040;-75
2023/04/17 11:16:46;;;;;;;2.30;2.10;;;10.30;99.90;;;;;;5043134;28;20072;-75
2023/04/17 11:19:20;;;;;;;2.10;2.00;;;10.20;99.90;;;;;;5042318;28;20033;-75
2023/04/17 11:21:48;;;;;;;2.08;1.98;;;10.30;99.90;;;;;;5042666;28;20029;-75
2023/04/17 11:24:22;;;;;;;3.28;2.10;;;10.30;99.90;;;;;;5043092;28;20030;-75
2023/04/17 11:26:47;;;;;;;2.25;2.05;;;10.30;99.90;;;;;;5042041;28;20037;-75
2023/04/17 11:29:21;;;;;;;2.20;2.00;;;10.30;99.90;;;;;;5042108;28;20125;-75
2023/04/17 11:31:51;;;;;;;2.17;2.05;;;10.40;99.90;;;;;;5042123;28;20065;-75
2023/04/17 11:34:17;;;;;;;2.53;2.33;;;10.50;99.90;;;;;;5041794;28;20128;-75
2023/04/17 11:36:50;;;;;;;1.85;1.75;;;10.80;99.90;;;;;;5042850;28;20025;-75
2023/04/17 11:39:21;;;;;;;2.10;1.90;;;10.90;99.90;;;;;;5042113;28;20061;-75
2023/04/17 11:41:47;;;;;;;2.67;2.10;;;11.00;99.90;;;;;;5042276;28;20025;-75
2023/04/17 11:44:14;;;;;;;2.00;1.90;;;11.10;99.90;;;;;;5043500;28;20053;-74
2023/04/17 11:46:39;;;;;;;1.73;1.63;;;11.40;99.90;;;;;;5045753;28;20485;-74
2023/04/17 11:49:06;;;;;;;2.28;2.13;;;11.70;99.90;;;;;;5045978;28;20028;-75
2023/04/17 11:51:32;;;;;;;3.17;2.80;;;11.80;99.90;;;;;;5046916;28;20040;-74
2023/04/17 11:53:58;;;;;;;3.65;2.85;;;12.10;99.90;;;;;;5046072;28;20484;-73
2023/04/17 11:56:27;;;;;;;3.47;3.15;;;12.10;99.90;;;;;;5046305;28;20040;-75
2023/04/17 11:58:57;;;;;;;4.78;3.92;;;12.30;99.90;;;;;;5046019;28;20029;-76
2023/04/17 12:01:25;;;;;;;4.97;4.18;;;12.40;99.90;;;;;;5045352;28;20040;-74
2023/04/17 12:04:00;;;;;;;4.80;3.97;;;12.30;99.90;;;;;;5046101;28;20047;-74
2023/04/17 12:06:36;;;;;;;4.63;4.10;;;12.30;99.90;;;;;;5045849;28;20081;-74
2023/04/17 12:09:02;;;;;;;5.63;4.60;;;12.30;99.90;;;;;;5045302;28;20057;-75
2023/04/17 12:11:30;;;;;;;5.65;4.82;;;12.20;99.90;;;;;;5027594;28;20025;-76
2023/04/17 12:13:56;;;;;;;6.72;4.78;;;12.20;99.90;;;;;;5046234;28;20373;-77
2023/04/17 12:16:23;;;;;;;4.40;3.95;;;12.40;99.90;;;;;;5044490;28;20037;-78
2023/04/17 12:18:49;;;;;;;4.50;4.10;;;12.30;99.90;;;;;;5044441;28;20068;-78
2023/04/17 12:21:14;;;;;;;4.55;4.10;;;12.30;99.90;;;;;;5044602;28;20056;-78
2023/04/17 12:23:40;;;;;;;4.68;4.28;;;12.60;99.90;;;;;;5044762;28;20059;-77
2023/04/17 12:26:06;;;;;;;3.88;3.47;;;12.50;99.90;;;;;;5044652;28;20105;-76
2023/04/17 12:28:32;;;;;;;3.22;2.92;;;12.60;99.90;;;;;;5044879;28;20053;-77
2023/04/17 12:30:57;;;;;;;2.40;2.20;;;12.80;99.90;;;;;;5043914;28;20041;-78
2023/04/17 12:33:23;;;;;;;2.75;2.55;;;12.80;99.90;;;;;;5044440;28;20025;-76
2023/04/17 12:35:50;;;;;;;2.70;2.50;;;12.60;99.90;;;;;;5044195;28;20119;-77
2023/04/17 12:38:16;;;;;;;2.53;2.33;;;12.20;99.90;;;;;;5044087;28;20025;-76
2023/04/17 12:40:42;;;;;;;2.25;2.05;;;11.90;99.90;;;;;;5045189;28;20419;-77
2023/04/17 12:43:11;;;;;;;2.95;2.72;;;11.90;99.90;;;;;;5044115;28;20049;-77
2023/04/17 12:45:37;;;;;;;2.38;2.17;;;11.80;99.90;;;;;;5043415;28;20086;-77
2023/04/17 12:48:04;;;;;;;2.60;2.40;;;11.70;99.90;;;;;;5037364;28;20108;-77
2023/04/17 12:50:30;;;;;;;3.08;2.88;;;11.70;99.90;;;;;;5044067;28;20021;-76
2023/04/17 12:52:56;;;;;;;3.17;2.95;;;11.60;99.90;;;;;;5044172;28;20122;-76